createdAt,value
2023-03-14T00:00:07.822Z,11.93
2023-03-14T00:00:40.275Z,11.89
2023-03-14T00:01:12.734Z,11.89
2023-03-14T00:01:45.187Z,11.87
2023-03-14T00:02:17.698Z,11.87
2023-03-14T00:02:50.181Z,11.86
2023-03-14T00:03:22.606Z,11.86
2023-03-14T00:03:55.039Z,11.85
2023-03-14T00:04:27.510Z,11.85
2023-03-14T00:04:59.971Z,11.83
2023-03-14T00:05:32.417Z,11.83
2023-03-14T00:06:04.894Z,11.80
2023-03-14T00:06:37.335Z,11.80
2023-03-14T00:07:09.806Z,11.78
2023-03-14T00:07:42.263Z,11.75
2023-03-14T00:08:14.753Z,11.75
2023-03-14T00:08:47.230Z,11.72
2023-03-14T00:09:19.667Z,11.70
2023-03-14T00:09:52.121Z,11.70
2023-03-14T00:10:24.555Z,11.71
2023-03-14T00:10:57.041Z,11.70
2023-03-14T00:11:29.487Z,11.67
2023-03-14T00:12:01.921Z,11.67
2023-03-14T00:12:34.331Z,11.65
2023-03-14T00:13:06.797Z,11.65
2023-03-14T00:13:39.228Z,11.64
2023-03-14T00:14:11.662Z,11.65
2023-03-14T00:14:44.100Z,11.65
2023-03-14T00:15:16.608Z,11.67
2023-03-14T00:15:49.069Z,11.67
2023-03-14T00:16:21.571Z,11.68
2023-03-14T00:16:54.068Z,11.67
2023-03-14T00:17:26.547Z,11.67
2023-03-14T00:17:59.085Z,11.64
2023-03-14T00:18:31.528Z,11.64
2023-03-14T00:19:04.046Z,11.61
2023-03-14T00:19:36.527Z,11.61
2023-03-14T00:20:08.969Z,11.61
2023-03-14T00:20:41.402Z,11.65
2023-03-14T00:21:13.970Z,11.64
2023-03-14T00:21:46.437Z,11.62
2023-03-14T00:22:18.899Z,11.61
2023-03-14T00:22:51.386Z,11.57
2023-03-14T00:23:23.847Z,11.57
2023-03-14T00:23:56.369Z,11.56
2023-03-14T00:24:28.897Z,11.53
2023-03-14T00:25:01.421Z,11.53
2023-03-14T00:25:33.866Z,11.53
2023-03-14T00:26:06.324Z,11.52
2023-03-14T00:26:38.720Z,11.49
2023-03-14T00:27:11.186Z,11.50
2023-03-14T00:27:43.620Z,11.49
2023-03-14T00:28:16.051Z,11.50
2023-03-14T00:28:48.471Z,11.52
2023-03-14T00:29:20.901Z,11.50
2023-03-14T00:29:53.340Z,11.50
2023-03-14T00:30:25.745Z,11.47
2023-03-14T00:30:58.293Z,11.47
2023-03-14T00:31:30.727Z,11.46
2023-03-14T00:32:03.140Z,11.44
2023-03-14T00:32:35.607Z,11.44
2023-03-14T00:33:08.101Z,11.43
2023-03-14T00:33:40.568Z,11.46
2023-03-14T00:34:13.005Z,11.47
2023-03-14T00:34:45.424Z,11.49
2023-03-14T00:35:17.900Z,11.49
2023-03-14T00:35:50.355Z,11.49
2023-03-14T00:36:22.772Z,11.49
2023-03-14T00:36:55.235Z,11.47
2023-03-14T00:37:27.700Z,11.47
2023-03-14T00:38:00.154Z,11.50
2023-03-14T00:38:32.620Z,11.52
2023-03-14T00:39:05.131Z,11.50
2023-03-14T00:39:37.606Z,11.49
2023-03-14T00:40:10.086Z,11.49
2023-03-14T00:40:42.548Z,11.47
2023-03-14T00:41:15.036Z,11.47
2023-03-14T00:41:47.509Z,11.44
2023-03-14T00:42:19.932Z,11.46
2023-03-14T00:42:52.389Z,11.44
2023-03-14T00:43:24.853Z,11.41
2023-03-14T00:43:57.316Z,11.39
2023-03-14T00:44:29.794Z,11.39
2023-03-14T00:45:02.211Z,11.38
2023-03-14T00:45:34.641Z,11.38
2023-03-14T00:46:07.112Z,11.35
2023-03-14T00:46:40.707Z,11.35
2023-03-14T00:47:11.918Z,11.35
2023-03-14T00:47:44.403Z,11.35
2023-03-14T00:48:17.086Z,11.35
2023-03-14T00:48:49.599Z,11.32
2023-03-14T00:49:22.048Z,11.31
2023-03-14T00:49:54.517Z,11.31
2023-03-14T00:50:26.967Z,11.31
2023-03-14T00:50:59.412Z,11.32
2023-03-14T00:51:31.875Z,11.31
2023-03-14T00:52:04.375Z,11.32
2023-03-14T00:52:36.973Z,11.31
2023-03-14T00:53:09.470Z,11.29
2023-03-14T00:53:42.026Z,11.29
2023-03-14T00:54:14.500Z,11.29
2023-03-14T00:54:46.980Z,11.29
2023-03-14T00:55:19.466Z,11.28
2023-03-14T00:55:51.979Z,11.28
2023-03-14T00:56:24.487Z,11.28
2023-03-14T00:56:57.024Z,11.24
2023-03-14T00:57:29.740Z,11.25
2023-03-14T00:58:02.189Z,11.25
2023-03-14T00:58:34.622Z,11.27
2023-03-14T00:59:07.071Z,11.25
2023-03-14T00:59:39.566Z,11.27
2023-03-14T01:00:12.003Z,11.27
2023-03-14T01:00:44.459Z,11.27
2023-03-14T01:01:16.961Z,11.25
2023-03-14T01:01:49.515Z,11.27
2023-03-14T01:02:22.016Z,11.25
2023-03-14T01:02:54.536Z,11.25
2023-03-14T01:03:26.960Z,11.21
2023-03-14T01:03:59.491Z,11.21
2023-03-14T01:04:31.924Z,11.20
2023-03-14T01:05:04.343Z,11.20
2023-03-14T01:05:36.922Z,11.21
2023-03-14T01:06:09.476Z,11.25
2023-03-14T01:06:41.980Z,11.25
2023-03-14T01:07:14.485Z,11.25
2023-03-14T01:07:46.956Z,11.27
2023-03-14T01:08:19.349Z,11.27
2023-03-14T01:08:51.814Z,11.28
2023-03-14T01:09:24.255Z,11.28
2023-03-14T01:09:56.674Z,11.27
2023-03-14T01:10:29.070Z,11.25
2023-03-14T01:11:01.534Z,11.24
2023-03-14T01:11:34.069Z,11.21
2023-03-14T01:12:06.546Z,11.20
2023-03-14T01:12:38.981Z,11.20
2023-03-14T01:13:11.407Z,11.19
2023-03-14T01:13:43.871Z,11.20
2023-03-14T01:14:16.292Z,11.19
2023-03-14T01:14:48.777Z,11.20
2023-03-14T01:15:21.256Z,11.20
2023-03-14T01:15:53.756Z,11.24
2023-03-14T01:16:26.240Z,11.20
2023-03-14T01:16:58.769Z,11.20
2023-03-14T01:17:31.226Z,11.20
2023-03-14T01:18:03.764Z,11.20
2023-03-14T01:18:36.189Z,11.24
2023-03-14T01:19:08.643Z,11.25
2023-03-14T01:19:41.129Z,11.27
2023-03-14T01:20:13.564Z,11.32
2023-03-14T01:20:46.045Z,11.32
2023-03-14T01:21:18.549Z,11.36
2023-03-14T01:21:51.021Z,11.36
2023-03-14T01:22:23.478Z,11.38
2023-03-14T01:22:55.928Z,11.39
2023-03-14T01:23:28.481Z,11.39
2023-03-14T01:24:00.940Z,11.39
2023-03-14T01:24:33.438Z,11.43
2023-03-14T01:25:05.850Z,11.43
2023-03-14T01:25:38.274Z,11.44
2023-03-14T01:26:10.738Z,11.46
2023-03-14T01:26:43.243Z,11.47
2023-03-14T01:27:15.683Z,11.49
2023-03-14T01:27:48.126Z,11.52
2023-03-14T01:28:20.589Z,11.52
2023-03-14T01:28:53.073Z,11.54
2023-03-14T01:29:25.500Z,11.56
2023-03-14T01:29:57.939Z,11.56
2023-03-14T01:30:30.427Z,11.54
2023-03-14T01:31:02.872Z,11.57
2023-03-14T01:31:35.445Z,11.56
2023-03-14T01:32:07.826Z,11.61
2023-03-14T01:32:40.314Z,11.61
2023-03-14T01:33:12.725Z,11.62
2023-03-14T01:33:45.199Z,11.62
2023-03-14T01:34:18.148Z,11.64
2023-03-14T01:34:50.596Z,11.64
2023-03-14T01:35:23.100Z,11.64
2023-03-14T01:35:55.587Z,11.65
2023-03-14T01:36:28.807Z,11.64
2023-03-14T01:37:00.437Z,11.64
2023-03-14T01:37:32.910Z,11.65
2023-03-14T01:38:05.319Z,11.61
2023-03-14T01:38:37.760Z,11.64
2023-03-14T01:39:10.211Z,11.64
2023-03-14T01:39:42.677Z,11.64
2023-03-14T01:40:15.119Z,11.64
2023-03-14T01:40:47.526Z,11.64
2023-03-14T01:41:20.026Z,11.64
2023-03-14T01:41:52.431Z,11.64
2023-03-14T01:42:24.887Z,11.65
2023-03-14T01:42:57.325Z,11.67
2023-03-14T01:43:29.786Z,11.67
2023-03-14T01:44:02.299Z,11.68
2023-03-14T01:44:34.712Z,11.70
2023-03-14T01:45:07.164Z,11.72
2023-03-14T01:45:39.589Z,11.74
2023-03-14T01:46:12.111Z,11.74
2023-03-14T01:46:44.457Z,11.72
2023-03-14T01:47:16.923Z,11.72
2023-03-14T01:47:49.453Z,11.72
2023-03-14T01:48:21.885Z,11.74
2023-03-14T01:48:54.377Z,11.72
2023-03-14T01:49:26.819Z,11.71
2023-03-14T01:49:59.291Z,11.71
2023-03-14T01:50:31.714Z,11.70
2023-03-14T01:51:04.179Z,11.67
2023-03-14T01:51:36.656Z,11.65
2023-03-14T01:52:09.166Z,11.62
2023-03-14T01:52:41.640Z,11.59
2023-03-14T01:53:14.133Z,11.57
2023-03-14T01:53:46.629Z,11.54
2023-03-14T01:54:19.068Z,11.52
2023-03-14T01:54:51.501Z,11.47
2023-03-14T01:55:23.965Z,11.43
2023-03-14T01:55:56.382Z,11.39
2023-03-14T01:56:28.828Z,11.34
2023-03-14T01:57:01.256Z,11.29
2023-03-14T01:57:33.678Z,11.27
2023-03-14T01:58:06.182Z,11.25
2023-03-14T01:58:38.620Z,11.20
2023-03-14T01:59:11.078Z,11.13
2023-03-14T01:59:43.523Z,11.10
2023-03-14T02:00:15.977Z,11.06
2023-03-14T02:00:48.469Z,10.99
2023-03-14T02:01:20.911Z,10.96
2023-03-14T02:01:53.358Z,10.94
2023-03-14T02:02:25.810Z,10.91
2023-03-14T02:02:58.275Z,10.84
2023-03-14T02:03:30.739Z,10.83
2023-03-14T02:04:03.174Z,10.77
2023-03-14T02:04:35.686Z,10.76
2023-03-14T02:05:08.138Z,10.73
2023-03-14T02:05:40.698Z,10.68
2023-03-14T02:06:13.157Z,10.66
2023-03-14T02:06:45.695Z,10.65
2023-03-14T02:07:18.164Z,10.60
2023-03-14T02:07:50.636Z,10.59
2023-03-14T02:08:23.102Z,10.56
2023-03-14T02:08:55.574Z,10.55
2023-03-14T02:09:28.047Z,10.53
2023-03-14T02:10:00.597Z,10.52
2023-03-14T02:10:33.073Z,10.46
2023-03-14T02:11:05.500Z,10.47
2023-03-14T02:11:37.967Z,10.46
2023-03-14T02:12:10.404Z,10.46
2023-03-14T02:12:42.856Z,10.43
2023-03-14T02:13:15.266Z,10.42
2023-03-14T02:13:47.712Z,10.40
2023-03-14T02:14:20.136Z,10.39
2023-03-14T02:14:52.601Z,10.37
2023-03-14T02:15:25.057Z,10.37
2023-03-14T02:15:57.489Z,10.36
2023-03-14T02:16:29.945Z,10.36
2023-03-14T02:17:02.346Z,10.33
2023-03-14T02:17:34.832Z,10.33
2023-03-14T02:18:07.289Z,10.32
2023-03-14T02:18:39.732Z,10.30
2023-03-14T02:19:12.208Z,10.30
2023-03-14T02:19:44.647Z,10.30
2023-03-14T02:20:17.074Z,10.28
2023-03-14T02:20:49.510Z,10.28
2023-03-14T02:21:21.982Z,10.24
2023-03-14T02:21:54.439Z,10.22
2023-03-14T02:22:26.923Z,10.24
2023-03-14T02:22:59.354Z,10.22
2023-03-14T02:23:31.806Z,10.21
2023-03-14T02:24:04.337Z,10.21
2023-03-14T02:24:36.785Z,10.19
2023-03-14T02:25:09.224Z,10.18
2023-03-14T02:25:41.661Z,10.17
2023-03-14T02:26:14.112Z,10.17
2023-03-14T02:26:46.570Z,10.14
2023-03-14T02:27:19.018Z,10.12
2023-03-14T02:27:51.647Z,10.12
2023-03-14T02:28:24.147Z,10.12
2023-03-14T02:28:56.625Z,10.10
2023-03-14T02:29:29.067Z,10.09
2023-03-14T02:30:01.527Z,10.07
2023-03-14T02:30:34.004Z,10.09
2023-03-14T02:31:06.445Z,10.07
2023-03-14T02:31:38.916Z,10.06
2023-03-14T02:32:11.372Z,10.04
2023-03-14T02:32:43.864Z,10.06
2023-03-14T02:33:17.265Z,10.03
2023-03-14T02:33:48.805Z,10.03
2023-03-14T02:34:21.256Z,10.00
2023-03-14T02:34:53.715Z,10.00
2023-03-14T02:35:26.135Z,10.00
2023-03-14T02:35:58.667Z,9.99
2023-03-14T02:36:31.111Z,9.97
2023-03-14T02:37:03.629Z,9.96
2023-03-14T02:37:36.102Z,9.93
2023-03-14T02:38:08.599Z,9.93
2023-03-14T02:38:41.051Z,9.91
2023-03-14T02:39:13.512Z,9.91
2023-03-14T02:39:45.946Z,9.89
2023-03-14T02:40:18.414Z,9.88
2023-03-14T02:40:50.846Z,9.85
2023-03-14T02:41:23.317Z,9.85
2023-03-14T02:41:55.763Z,9.83
2023-03-14T02:42:28.241Z,9.85
2023-03-14T02:43:00.697Z,9.82
2023-03-14T02:43:33.147Z,9.83
2023-03-14T02:44:05.645Z,9.82
2023-03-14T02:44:38.115Z,9.82
2023-03-14T02:45:10.559Z,9.83
2023-03-14T02:45:43.040Z,9.81
2023-03-14T02:46:15.497Z,9.82
2023-03-14T02:46:47.917Z,9.81
2023-03-14T02:47:20.390Z,9.79
2023-03-14T02:47:52.864Z,9.81
2023-03-14T02:48:25.323Z,9.81
2023-03-14T02:48:57.740Z,9.79
2023-03-14T02:49:30.232Z,9.79
2023-03-14T02:50:02.678Z,9.79
2023-03-14T02:50:35.126Z,9.76
2023-03-14T02:51:07.598Z,9.79
2023-03-14T02:51:40.065Z,9.76
2023-03-14T02:52:12.537Z,9.76
2023-03-14T02:52:44.948Z,9.73
2023-03-14T02:53:17.442Z,9.75
2023-03-14T02:53:49.901Z,9.76
2023-03-14T02:54:22.349Z,9.75
2023-03-14T02:54:54.812Z,9.73
2023-03-14T02:55:27.317Z,9.75
2023-03-14T02:55:59.762Z,9.73
2023-03-14T02:56:32.208Z,9.73
2023-03-14T02:57:04.677Z,9.73
2023-03-14T02:57:37.170Z,9.73
2023-03-14T02:58:09.575Z,9.71
2023-03-14T02:58:42.035Z,9.71
2023-03-14T02:59:14.575Z,9.71
2023-03-14T02:59:46.992Z,9.71
2023-03-14T03:00:19.477Z,9.70
2023-03-14T03:00:52.014Z,9.68
2023-03-14T03:01:24.577Z,9.68
2023-03-14T03:01:57.022Z,9.67
2023-03-14T03:02:29.518Z,9.66
2023-03-14T03:03:02.054Z,9.66
2023-03-14T03:03:34.605Z,9.66
2023-03-14T03:04:07.052Z,9.66
2023-03-14T03:04:39.530Z,9.64
2023-03-14T03:05:12.055Z,9.63
2023-03-14T03:05:44.569Z,9.63
2023-03-14T03:06:17.068Z,9.64
2023-03-14T03:06:49.575Z,9.63
2023-03-14T03:07:22.058Z,9.61
2023-03-14T03:07:54.575Z,9.61
2023-03-14T03:08:27.025Z,9.61
2023-03-14T03:08:59.469Z,9.58
2023-03-14T03:09:31.907Z,9.60
2023-03-14T03:10:04.383Z,9.58
2023-03-14T03:10:36.824Z,9.57
2023-03-14T03:11:09.287Z,9.56
2023-03-14T03:11:41.744Z,9.56
2023-03-14T03:12:14.189Z,9.56
2023-03-14T03:12:46.652Z,9.53
2023-03-14T03:13:19.107Z,9.52
2023-03-14T03:13:51.599Z,9.50
2023-03-14T03:14:24.028Z,9.52
2023-03-14T03:14:56.532Z,9.52
2023-03-14T03:15:28.957Z,9.48
2023-03-14T03:16:01.415Z,9.48
2023-03-14T03:16:33.953Z,9.48
2023-03-14T03:17:06.381Z,9.45
2023-03-14T03:17:38.854Z,9.45
2023-03-14T03:18:11.279Z,9.43
2023-03-14T03:18:43.750Z,9.45
2023-03-14T03:19:16.211Z,9.45
2023-03-14T03:19:48.666Z,9.43
2023-03-14T03:20:21.101Z,9.42
2023-03-14T03:20:53.580Z,9.39
2023-03-14T03:21:26.113Z,9.39
2023-03-14T03:21:58.588Z,9.38
2023-03-14T03:22:31.130Z,9.38
2023-03-14T03:23:03.590Z,9.35
2023-03-14T03:23:36.022Z,9.34
2023-03-14T03:24:08.521Z,9.32
2023-03-14T03:24:41.019Z,9.32
2023-03-14T03:25:13.518Z,9.31
2023-03-14T03:25:46.107Z,9.30
2023-03-14T03:26:18.657Z,9.30
2023-03-14T03:26:51.071Z,9.30
2023-03-14T03:27:23.516Z,9.28
2023-03-14T03:27:55.962Z,9.28
2023-03-14T03:28:28.436Z,9.27
2023-03-14T03:29:00.864Z,9.27
2023-03-14T03:29:33.355Z,9.27
2023-03-14T03:30:05.825Z,9.27
2023-03-14T03:30:38.305Z,9.28
2023-03-14T03:31:10.808Z,9.27
2023-03-14T03:31:43.196Z,9.28
2023-03-14T03:32:15.632Z,9.31
2023-03-14T03:32:55.403Z,9.30
2023-03-14T03:33:27.868Z,9.34
2023-03-14T03:34:00.324Z,9.32
2023-03-14T03:34:32.731Z,9.35
2023-03-14T03:35:05.193Z,9.32
2023-03-14T03:35:37.671Z,9.34
2023-03-14T03:36:10.138Z,9.35
2023-03-14T03:36:42.508Z,9.34
2023-03-14T03:37:14.974Z,9.34
2023-03-14T03:37:47.438Z,9.38
2023-03-14T03:38:19.934Z,9.40
2023-03-14T03:38:52.376Z,9.40
2023-03-14T03:39:24.813Z,9.40
2023-03-14T03:39:57.361Z,9.43
2023-03-14T03:40:29.792Z,9.43
2023-03-14T03:41:02.250Z,9.45
2023-03-14T03:41:34.713Z,9.45
2023-03-14T03:42:07.172Z,9.46
2023-03-14T03:42:39.675Z,9.45
2023-03-14T03:43:12.150Z,9.46
2023-03-14T03:43:44.612Z,9.46
2023-03-14T03:44:17.069Z,9.45
2023-03-14T03:44:49.545Z,9.45
2023-03-14T03:45:22.056Z,9.48
2023-03-14T03:45:54.667Z,9.48
2023-03-14T03:46:27.211Z,9.48
2023-03-14T03:46:59.631Z,9.46
2023-03-14T03:47:32.102Z,9.48
2023-03-14T03:48:04.577Z,9.49
2023-03-14T03:48:37.060Z,9.49
2023-03-14T03:49:09.512Z,9.50
2023-03-14T03:49:41.978Z,9.52
2023-03-14T03:50:14.447Z,9.52
2023-03-14T03:50:46.949Z,9.53
2023-03-14T03:51:19.413Z,9.56
2023-03-14T03:51:51.835Z,9.58
2023-03-14T03:52:24.355Z,9.60
2023-03-14T03:52:56.843Z,9.61
2023-03-14T03:53:33.675Z,9.64
2023-03-14T03:54:01.712Z,9.66
2023-03-14T03:54:34.161Z,9.68
2023-03-14T03:55:06.623Z,9.71
2023-03-14T03:55:39.105Z,9.73
2023-03-14T03:56:11.577Z,9.76
2023-03-14T03:56:44.025Z,9.75
2023-03-14T03:57:16.485Z,9.76
2023-03-14T03:57:48.951Z,9.76
2023-03-14T03:58:21.427Z,9.76
2023-03-14T03:58:53.850Z,9.75
2023-03-14T03:59:26.387Z,9.79
2023-03-14T03:59:58.875Z,9.81
2023-03-14T04:00:31.371Z,9.79
2023-03-14T04:01:03.858Z,9.79
2023-03-14T04:01:36.280Z,9.83
2023-03-14T04:02:08.755Z,9.82
2023-03-14T04:02:41.341Z,9.83
2023-03-14T04:03:13.740Z,9.82
2023-03-14T04:03:46.265Z,9.85
2023-03-14T04:04:18.747Z,9.85
2023-03-14T04:04:51.143Z,9.85
2023-03-14T04:05:23.582Z,9.85
2023-03-14T04:05:56.116Z,9.86
2023-03-14T04:06:28.598Z,9.86
2023-03-14T04:07:01.057Z,9.88
2023-03-14T04:07:33.540Z,9.88
2023-03-14T04:08:05.997Z,9.86
2023-03-14T04:08:38.538Z,9.88
2023-03-14T04:09:11.016Z,9.85
2023-03-14T04:09:43.529Z,9.85
2023-03-14T04:10:16.002Z,9.85
2023-03-14T04:10:48.551Z,9.86
2023-03-14T04:11:21.011Z,9.88
2023-03-14T04:11:53.480Z,9.88
2023-03-14T04:12:25.968Z,9.86
2023-03-14T04:12:58.420Z,9.86
2023-03-14T04:13:30.849Z,9.86
2023-03-14T04:14:03.368Z,9.86
2023-03-14T04:14:35.870Z,9.85
2023-03-14T04:15:08.341Z,9.82
2023-03-14T04:15:41.069Z,9.83
2023-03-14T04:16:13.512Z,9.81
2023-03-14T04:16:45.958Z,9.82
2023-03-14T04:17:18.416Z,9.81
2023-03-14T04:17:50.887Z,9.81
2023-03-14T04:18:23.348Z,9.82
2023-03-14T04:18:55.800Z,9.82
2023-03-14T04:19:28.244Z,9.82
2023-03-14T04:20:00.701Z,9.82
2023-03-14T04:20:33.140Z,9.83
2023-03-14T04:21:05.589Z,9.85
2023-03-14T04:21:38.078Z,9.85
2023-03-14T04:22:10.532Z,9.85
2023-03-14T04:22:44.530Z,9.85
2023-03-14T04:23:15.484Z,9.88
2023-03-14T04:23:47.965Z,9.88
2023-03-14T04:24:20.441Z,9.88
2023-03-14T04:24:53.046Z,9.88
2023-03-14T04:25:25.465Z,9.89
2023-03-14T04:25:57.855Z,9.89
2023-03-14T04:26:30.333Z,9.89
2023-03-14T04:27:02.810Z,9.88
2023-03-14T04:27:35.278Z,9.91
2023-03-14T04:28:07.747Z,9.93
2023-03-14T04:28:40.223Z,9.93
2023-03-14T04:29:13.495Z,9.93
2023-03-14T04:29:45.146Z,9.94
2023-03-14T04:30:17.595Z,9.97
2023-03-14T04:30:50.118Z,9.96
2023-03-14T04:31:22.695Z,9.97
2023-03-14T04:31:55.061Z,9.97
2023-03-14T04:32:27.529Z,9.97
2023-03-14T04:33:00.019Z,9.99
2023-03-14T04:33:32.372Z,9.96
2023-03-14T04:34:04.816Z,9.99
2023-03-14T04:34:37.278Z,9.99
2023-03-14T04:35:09.730Z,9.97
2023-03-14T04:35:42.227Z,9.99
2023-03-14T04:36:14.664Z,10.00
2023-03-14T04:36:47.110Z,10.01
2023-03-14T04:37:19.557Z,10.03
2023-03-14T04:37:52.065Z,10.04
2023-03-14T04:38:24.513Z,10.00
2023-03-14T04:38:57.038Z,10.03
2023-03-14T04:39:29.484Z,10.03
2023-03-14T04:40:01.967Z,10.01
2023-03-14T04:40:34.446Z,10.03
2023-03-14T04:41:06.939Z,10.01
2023-03-14T04:41:39.371Z,10.00
2023-03-14T04:42:11.817Z,10.01
2023-03-14T04:42:44.251Z,10.00
2023-03-14T04:43:16.725Z,10.03
2023-03-14T04:43:49.188Z,10.01
2023-03-14T04:44:21.649Z,10.04
2023-03-14T04:44:54.139Z,10.03
2023-03-14T04:45:26.629Z,10.03
2023-03-14T04:45:59.109Z,10.06
2023-03-14T04:46:31.642Z,10.06
2023-03-14T04:47:04.085Z,10.07
2023-03-14T04:47:36.458Z,10.07
2023-03-14T04:48:08.911Z,10.07
2023-03-14T04:48:41.365Z,10.09
2023-03-14T04:49:13.820Z,10.07
2023-03-14T04:49:46.289Z,10.06
2023-03-14T04:50:18.774Z,10.07
2023-03-14T04:50:51.284Z,10.09
2023-03-14T04:51:23.799Z,10.12
2023-03-14T04:51:56.255Z,10.12
2023-03-14T04:52:28.782Z,10.12
2023-03-14T04:53:01.256Z,10.12
2023-03-14T04:53:33.794Z,10.12
2023-03-14T04:54:06.271Z,10.14
2023-03-14T04:54:38.732Z,10.15
2023-03-14T04:55:11.202Z,10.17
2023-03-14T04:55:43.697Z,10.15
2023-03-14T04:56:16.153Z,10.14
2023-03-14T04:56:48.651Z,10.15
2023-03-14T04:57:21.098Z,10.15
2023-03-14T04:57:53.576Z,10.15
2023-03-14T04:58:26.051Z,10.14
2023-03-14T04:58:58.522Z,10.14
2023-03-14T04:59:30.991Z,10.15
2023-03-14T05:00:03.471Z,10.12
2023-03-14T05:00:37.153Z,10.14
2023-03-14T05:01:08.387Z,10.12
2023-03-14T05:01:40.936Z,10.12
2023-03-14T05:02:13.358Z,10.12
2023-03-14T05:02:45.848Z,10.14
2023-03-14T05:03:18.327Z,10.14
2023-03-14T05:03:50.771Z,10.14
2023-03-14T05:04:23.218Z,10.14
2023-03-14T05:04:55.657Z,10.14
2023-03-14T05:05:28.120Z,10.15
2023-03-14T05:06:00.566Z,10.15
2023-03-14T05:06:33.033Z,10.14
2023-03-14T05:07:05.451Z,10.12
2023-03-14T05:07:37.920Z,10.12
2023-03-14T05:08:10.406Z,10.14
2023-03-14T05:08:42.867Z,10.12
2023-03-14T05:09:15.332Z,10.14
2023-03-14T05:09:47.767Z,10.12
2023-03-14T05:10:20.250Z,10.12
2023-03-14T05:10:52.728Z,10.10
2023-03-14T05:11:25.291Z,10.10
2023-03-14T05:11:57.764Z,10.10
2023-03-14T05:12:30.242Z,10.09
2023-03-14T05:13:02.735Z,10.10
2023-03-14T05:13:35.249Z,10.07
2023-03-14T05:14:07.709Z,10.09
2023-03-14T05:14:40.197Z,10.07
2023-03-14T05:15:12.674Z,10.06
2023-03-14T05:15:45.172Z,10.07
2023-03-14T05:16:17.647Z,10.06
2023-03-14T05:16:50.099Z,10.04
2023-03-14T05:17:22.594Z,10.06
2023-03-14T05:17:55.024Z,10.04
2023-03-14T05:18:27.506Z,10.03
2023-03-14T05:18:59.982Z,10.03
2023-03-14T05:19:33.565Z,10.01
2023-03-14T05:20:04.957Z,10.00
2023-03-14T05:20:37.519Z,10.01
2023-03-14T05:21:09.952Z,10.01
2023-03-14T05:21:42.495Z,10.01
2023-03-14T05:22:14.971Z,10.00
2023-03-14T05:22:47.430Z,10.00
2023-03-14T05:23:19.910Z,10.01
2023-03-14T05:23:52.396Z,10.03
2023-03-14T05:24:24.870Z,10.03
2023-03-14T05:24:57.288Z,10.01
2023-03-14T05:25:31.603Z,10.00
2023-03-14T05:26:02.302Z,10.03
2023-03-14T05:26:34.775Z,10.01
2023-03-14T05:27:07.227Z,10.01
2023-03-14T05:27:39.690Z,10.00
2023-03-14T05:28:12.221Z,10.01
2023-03-14T05:28:44.735Z,10.00
2023-03-14T05:29:17.208Z,9.99
2023-03-14T05:29:49.698Z,9.96
2023-03-14T05:30:22.174Z,9.96
2023-03-14T05:30:54.660Z,9.94
2023-03-14T05:31:27.171Z,9.93
2023-03-14T05:31:59.658Z,9.93
2023-03-14T05:32:32.153Z,9.93
2023-03-14T05:33:04.673Z,9.91
2023-03-14T05:33:37.135Z,9.91
2023-03-14T05:34:09.589Z,9.88
2023-03-14T05:34:42.049Z,9.89
2023-03-14T05:35:14.529Z,9.86
2023-03-14T05:35:47.035Z,9.86
2023-03-14T05:36:19.458Z,9.85
2023-03-14T05:36:51.937Z,9.85
2023-03-14T05:37:24.401Z,9.82
2023-03-14T05:37:56.845Z,9.83
2023-03-14T05:38:29.286Z,9.82
2023-03-14T05:39:01.755Z,9.81
2023-03-14T05:39:34.214Z,9.78
2023-03-14T05:40:06.651Z,9.78
2023-03-14T05:40:39.127Z,9.76
2023-03-14T05:41:11.598Z,9.76
2023-03-14T05:41:44.079Z,9.76
2023-03-14T05:42:16.569Z,9.75
2023-03-14T05:42:49.160Z,9.76
2023-03-14T05:43:21.652Z,9.75
2023-03-14T05:43:54.090Z,9.76
2023-03-14T05:44:26.569Z,9.76
2023-03-14T05:44:59.025Z,9.78
2023-03-14T05:45:32.913Z,9.78
2023-03-14T05:46:04.154Z,9.76
2023-03-14T05:46:36.505Z,9.78
2023-03-14T05:47:09.943Z,9.78
2023-03-14T05:47:42.483Z,9.81
2023-03-14T05:48:14.938Z,9.76
2023-03-14T05:48:47.442Z,9.76
2023-03-14T05:49:19.959Z,9.73
2023-03-14T05:49:52.444Z,9.75
2023-03-14T05:50:24.904Z,9.71
2023-03-14T05:50:57.407Z,9.71
2023-03-14T05:51:30.424Z,9.68
2023-03-14T05:52:02.932Z,9.68
2023-03-14T05:52:35.426Z,9.70
2023-03-14T05:53:07.987Z,9.70
2023-03-14T05:53:40.574Z,9.70
2023-03-14T05:54:13.030Z,9.68
2023-03-14T05:54:45.572Z,9.67
2023-03-14T05:55:18.053Z,9.66
2023-03-14T05:55:50.522Z,9.64
2023-03-14T05:56:23.041Z,9.64
2023-03-14T05:56:55.495Z,9.64
2023-03-14T05:57:28.554Z,9.63
2023-03-14T05:58:01.028Z,9.60
2023-03-14T05:58:33.506Z,9.63
2023-03-14T05:59:06.021Z,9.61
2023-03-14T05:59:38.512Z,9.60
2023-03-14T06:00:11.008Z,9.58
2023-03-14T06:00:43.631Z,9.58
2023-03-14T06:01:16.152Z,9.57
2023-03-14T06:01:48.649Z,9.56
2023-03-14T06:02:21.248Z,9.53
2023-03-14T06:02:53.761Z,9.53
2023-03-14T06:03:26.351Z,9.52
2023-03-14T06:03:58.741Z,9.52
2023-03-14T06:04:31.186Z,9.50
2023-03-14T06:05:03.629Z,9.49
2023-03-14T06:05:36.112Z,9.48
2023-03-14T06:06:08.605Z,9.48
2023-03-14T06:06:41.066Z,9.46
2023-03-14T06:07:13.536Z,9.45
2023-03-14T06:07:46.021Z,9.46
2023-03-14T06:08:18.465Z,9.46
2023-03-14T06:08:50.940Z,9.46
2023-03-14T06:09:23.471Z,9.45
2023-03-14T06:09:55.914Z,9.46
2023-03-14T06:10:28.377Z,9.45
2023-03-14T06:11:01.461Z,9.45
2023-03-14T06:11:33.903Z,9.45
2023-03-14T06:12:06.351Z,9.45
2023-03-14T06:12:38.830Z,9.45
2023-03-14T06:13:11.260Z,9.46
2023-03-14T06:13:43.689Z,9.45
2023-03-14T06:14:16.139Z,9.46
2023-03-14T06:14:49.171Z,9.46
2023-03-14T06:15:21.641Z,9.46
2023-03-14T06:15:54.125Z,9.48
2023-03-14T06:16:26.720Z,9.48
2023-03-14T06:16:59.253Z,9.49
2023-03-14T06:17:31.718Z,9.50
2023-03-14T06:18:04.231Z,9.50
2023-03-14T06:18:36.660Z,9.50
2023-03-14T06:19:09.109Z,9.48
2023-03-14T06:19:41.597Z,9.48
2023-03-14T06:20:14.047Z,9.48
2023-03-14T06:20:46.540Z,9.46
2023-03-14T06:21:19.413Z,9.46
2023-03-14T06:21:51.526Z,9.46
2023-03-14T06:22:23.997Z,9.48
2023-03-14T06:22:56.675Z,9.46
2023-03-14T06:23:29.184Z,9.46
2023-03-14T06:24:01.680Z,9.46
2023-03-14T06:24:34.278Z,9.45
2023-03-14T06:25:06.692Z,9.45
2023-03-14T06:25:39.125Z,9.43
2023-03-14T06:26:11.729Z,9.43
2023-03-14T06:26:44.263Z,9.43
2023-03-14T06:27:16.836Z,9.42
2023-03-14T06:27:49.299Z,9.39
2023-03-14T06:28:21.782Z,9.39
2023-03-14T06:28:54.269Z,9.39
2023-03-14T06:29:26.784Z,9.38
2023-03-14T06:29:59.350Z,9.38
2023-03-14T06:30:31.887Z,9.38
2023-03-14T06:31:04.578Z,9.38
2023-03-14T06:31:36.894Z,9.35
2023-03-14T06:32:09.416Z,9.39
2023-03-14T06:32:42.473Z,9.34
2023-03-14T06:33:15.023Z,9.35
2023-03-14T06:33:47.481Z,9.32
2023-03-14T06:34:19.965Z,9.32
2023-03-14T06:34:52.496Z,9.28
2023-03-14T06:35:24.959Z,9.25
2023-03-14T06:35:57.515Z,9.24
2023-03-14T06:36:30.005Z,9.25
2023-03-14T06:37:02.496Z,9.23
2023-03-14T06:37:34.948Z,9.21
2023-03-14T06:38:07.430Z,9.18
2023-03-14T06:38:39.901Z,9.13
2023-03-14T06:39:12.334Z,9.10
2023-03-14T06:39:44.871Z,9.09
2023-03-14T06:40:17.402Z,9.05
2023-03-14T06:40:50.194Z,9.04
2023-03-14T06:41:22.683Z,9.01
2023-03-14T06:41:55.469Z,9.04
2023-03-14T06:42:27.924Z,9.02
2023-03-14T06:43:00.418Z,9.05
2023-03-14T06:43:32.919Z,9.02
2023-03-14T06:44:05.422Z,9.02
2023-03-14T06:44:37.928Z,9.01
2023-03-14T06:45:10.370Z,9.01
2023-03-14T06:45:42.890Z,8.97
2023-03-14T06:46:15.384Z,8.94
2023-03-14T06:46:47.832Z,8.93
2023-03-14T06:47:20.352Z,8.93
2023-03-14T06:47:52.830Z,8.91
2023-03-14T06:48:25.298Z,8.94
2023-03-14T06:48:57.837Z,8.93
2023-03-14T06:49:30.331Z,8.94
2023-03-14T06:50:02.810Z,8.93
2023-03-14T06:50:35.422Z,8.93
2023-03-14T06:51:08.017Z,8.90
2023-03-14T06:51:40.523Z,8.91
2023-03-14T06:52:12.955Z,8.90
2023-03-14T06:52:45.464Z,8.91
2023-03-14T06:53:17.919Z,8.90
2023-03-14T06:53:50.422Z,8.94
2023-03-14T06:54:22.867Z,8.93
2023-03-14T06:54:55.350Z,8.93
2023-03-14T06:55:27.838Z,8.91
2023-03-14T06:56:00.300Z,8.94
2023-03-14T06:56:32.768Z,8.96
2023-03-14T06:57:05.223Z,8.99
2023-03-14T06:57:37.713Z,8.99
2023-03-14T06:58:10.214Z,8.99
2023-03-14T06:58:42.691Z,9.05
2023-03-14T06:59:15.237Z,9.06
2023-03-14T06:59:47.758Z,9.06
2023-03-14T07:00:20.277Z,9.13
2023-03-14T07:00:52.689Z,9.13
2023-03-14T07:01:25.184Z,9.15
2023-03-14T07:01:57.592Z,9.13
2023-03-14T07:02:41.856Z,9.12
2023-03-14T07:03:02.570Z,9.10
2023-03-14T07:03:35.082Z,9.10
2023-03-14T07:04:07.603Z,9.06
2023-03-14T07:04:40.129Z,9.01
2023-03-14T07:05:12.538Z,8.97